createdAt,value
2022-07-29T00:04:41.770Z,98998.53
2022-07-29T00:25:02.546Z,99016.13
2022-07-29T00:45:23.273Z,99019.38
2022-07-29T01:05:50.188Z,99006.88
2022-07-29T01:26:11.493Z,98998.91
2022-07-29T01:46:32.571Z,99000.81
2022-07-29T02:06:53.480Z,98994.66
2022-07-29T02:26:57.096Z,98995.19
2022-07-29T02:46:58.984Z,98994.66
2022-07-29T03:07:00.759Z,98978.66
2022-07-29T03:27:02.752Z,98986.16
2022-07-29T03:47:05.720Z,98988.69
2022-07-29T04:07:07.634Z,98997.53
2022-07-29T04:27:09.410Z,99016.44
2022-07-29T04:47:11.232Z,99013.78
2022-07-29T05:07:14.301Z,99016.34
2022-07-29T05:27:16.141Z,99020.03
2022-07-29T05:47:18.001Z,99026.72
2022-07-29T06:07:19.938Z,99028.19
2022-07-29T06:27:21.677Z,99026.44
2022-07-29T06:47:23.625Z,99030.78
2022-07-29T07:07:25.622Z,99036.59
2022-07-29T07:27:27.514Z,99032.44
2022-07-29T07:47:29.186Z,99033.78
2022-07-29T08:07:31.291Z,99034.34
2022-07-29T08:27:43.429Z,99043.00
2022-07-29T08:47:45.677Z,99044.56
2022-07-29T09:07:47.473Z,99042.78
2022-07-29T09:27:49.322Z,99032.22
2022-07-29T09:47:51.415Z,99026.03
2022-07-29T10:07:54.135Z,98990.50
2022-07-29T10:27:56.861Z,98986.56
2022-07-29T10:48:17.385Z,98961.22
2022-07-29T11:08:26.393Z,98955.59
2022-07-29T11:28:29.393Z,98942.41
2022-07-29T11:48:32.100Z,98932.75
2022-07-29T12:08:53.066Z,98921.44
2022-07-29T12:28:54.820Z,98896.69
2022-07-29T12:49:00.755Z,98882.72
2022-07-29T13:09:06.094Z,98877.50
2022-07-29T13:29:08.337Z,98856.47
2022-07-29T13:49:10.394Z,98842.09
2022-07-29T14:09:12.614Z,98818.03
2022-07-29T14:29:14.514Z,98817.31
2022-07-29T14:49:17.283Z,98826.16
2022-07-29T15:09:19.424Z,98862.53
2022-07-29T15:29:21.284Z,98909.28
2022-07-29T15:49:23.026Z,98888.66
2022-07-29T16:09:43.628Z,98908.47
2022-07-29T16:29:48.725Z,98895.78
2022-07-29T16:50:09.338Z,98842.31
2022-07-29T17:10:15.934Z,98827.66
2022-07-29T17:30:17.844Z,98794.97
2022-07-29T17:50:19.863Z,98784.56
2022-07-29T18:10:21.696Z,98775.94
2022-07-29T18:30:23.866Z,98782.81
2022-07-29T18:50:29.200Z,98799.91
2022-07-29T19:10:31.518Z,98810.78
2022-07-29T19:30:39.122Z,98827.75
2022-07-29T19:50:52.538Z,98826.88
2022-07-29T20:10:54.413Z,98836.50
2022-07-29T20:30:56.243Z,98856.16
2022-07-29T20:51:17.170Z,98838.78
2022-07-29T21:11:21.117Z,98835.28
2022-07-29T21:31:59.908Z,98850.22
2022-07-29T21:52:02.184Z,98852.84
2022-07-29T22:12:03.901Z,98855.84
2022-07-29T22:32:05.567Z,98824.75
2022-07-29T22:52:07.428Z,98811.28
2022-07-29T23:12:09.313Z,98808.84
2022-07-29T23:32:30.115Z,98810.22
2022-07-29T23:52:50.315Z,98806.63
